首页
METAR-TAF:

METAR-TAF

机场 :

Marquette, 密歇根州, 美国

纬度: 46-21-13N, 经度: 087-23-45W, 海拔: 372米

当前天气观测

该预报发布于43分钟前的15:47 UTC
风速8节,风向北转东北
温度 27°C
湿度 48%
气压 1010 hPa
能見度: 16.1公里
天空无云

METAR: KSAW 201547Z 03008KT 10SM SKC 27/15 A2983 RMK LTG DSNT SW

时间: 12:30 (16:30 UTC)

预报

该预报发布于1小时和1分钟前的15:29 UTC
预报有效从20日的 15点(UTC)到 21日的 12点(UTC)
风速8节,风向北转东北
能見度: 10公里
多云层高于20000英尺
从 20日的 1800点(UTC)
风速8节,风向北转东北,有时为15节阵风
能見度: 10公里
多云层高于15000英尺
从 21日的 0000点(UTC)
风速6节,风向西转西北
能見度: 10公里
多云层高于18000英尺
从 21日的 0600点(UTC)
风速5节,风向西转西北
能見度: 10公里
天空无云

TAF: KSAW 201529Z 2015/2112 02008KT P6SM BKN200 FM201800 02008G15KT P6SM BKN150 FM210000 30006KT P6SM BKN180 FM210600 30005KT P6SM SKC

超过4000个机场的气象观测和天气预报(METAR&TAF报告)。

可查询的气象台以黄色和红色小点在地图上表示。

将鼠标移到小点上方,可查看气象台名称。

然后点击查看天气观测和预报。

如需切换地图:点击带黑十字的绿色按钮放大地图;点击带横线的绿色按钮缩小地图;或者点击绿色箭头查看邻近地区的地图。


METAR-TAF: